sensor_id;sensor_type;location;lat;lon;timestamp;pressure;altitude;pressure_sealevel;temperature;humidity
34742;BME280;20968;42.696;23.360;2024-03-02T00:02:23;94669.56;;;10.39;79.75
34742;BME280;20968;42.696;23.360;2024-03-02T00:04:49;94677.53;;;10.31;80.22
34742;BME280;20968;42.696;23.360;2024-03-02T00:07:14;94676.09;;;10.41;79.62
34742;BME280;20968;42.696;23.360;2024-03-02T00:09:40;94672.09;;;10.42;78.76
34742;BME280;20968;42.696;23.360;2024-03-02T00:12:06;94671.91;;;10.51;79.10
34742;BME280;20968;42.696;23.360;2024-03-02T00:14:31;94665.91;;;10.53;78.52
34742;BME280;20968;42.696;23.360;2024-03-02T00:16:57;94669.69;;;10.55;78.49
34742;BME280;20968;42.696;23.360;2024-03-02T00:19:24;94666.31;;;10.40;78.38
34742;BME280;20968;42.696;23.360;2024-03-02T00:21:50;94658.66;;;10.19;78.65
34742;BME280;20968;42.696;23.360;2024-03-02T00:26:46;94658.03;;;10.04;79.78
34742;BME280;20968;42.696;23.360;2024-03-02T00:29:13;94660.00;;;10.04;79.79
34742;BME280;20968;42.696;23.360;2024-03-02T00:31:41;94663.47;;;9.99;80.17
34742;BME280;20968;42.696;23.360;2024-03-02T00:34:07;94663.94;;;9.97;80.46
34742;BME280;20968;42.696;23.360;2024-03-02T00:36:33;94661.00;;;10.01;80.59
34742;BME280;20968;42.696;23.360;2024-03-02T00:38:59;94655.22;;;9.99;80.75
34742;BME280;20968;42.696;23.360;2024-03-02T00:41:30;94659.06;;;10.07;80.46
34742;BME280;20968;42.696;23.360;2024-03-02T00:46:24;94661.63;;;10.15;79.55
34742;BME280;20968;42.696;23.360;2024-03-02T00:48:55;94666.84;;;10.13;79.42
34742;BME280;20968;42.696;23.360;2024-03-02T00:51:22;94661.69;;;10.21;79.52
34742;BME280;20968;42.696;23.360;2024-03-02T00:53:49;94650.97;;;10.28;79.85
34742;BME280;20968;42.696;23.360;2024-03-02T00:56:14;94654.00;;;10.30;79.76
34742;BME280;20968;42.696;23.360;2024-03-02T00:58:40;94645.53;;;10.34;79.02
34742;BME280;20968;42.696;23.360;2024-03-02T01:01:06;94646.81;;;10.38;78.82
34742;BME280;20968;42.696;23.360;2024-03-02T01:03:33;94652.38;;;10.49;78.99
34742;BME280;20968;42.696;23.360;2024-03-02T01:05:59;94649.47;;;10.64;78.93
34742;BME280;20968;42.696;23.360;2024-03-02T01:08:24;94644.97;;;10.66;78.98
34742;BME280;20968;42.696;23.360;2024-03-02T01:10:49;94652.03;;;10.73;78.46
34742;BME280;20968;42.696;23.360;2024-03-02T01:13:15;94660.06;;;10.76;78.60
34742;BME280;20968;42.696;23.360;2024-03-02T01:15:40;94642.03;;;10.75;78.11
34742;BME280;20968;42.696;23.360;2024-03-02T01:18:06;94645.97;;;10.63;79.04
34742;BME280;20968;42.696;23.360;2024-03-02T01:20:31;94635.47;;;10.67;78.80
34742;BME280;20968;42.696;23.360;2024-03-02T01:22:57;94638.09;;;10.45;79.71
34742;BME280;20968;42.696;23.360;2024-03-02T01:25:22;94636.25;;;10.31;80.24
34742;BME280;20968;42.696;23.360;2024-03-02T01:27:48;94637.22;;;10.28;80.49
34742;BME280;20968;42.696;23.360;2024-03-02T01:30:13;94632.50;;;10.34;80.87
34742;BME280;20968;42.696;23.360;2024-03-02T01:32:39;94633.50;;;10.31;80.77
34742;BME280;20968;42.696;23.360;2024-03-02T01:35:05;94633.50;;;10.31;81.46
34742;BME280;20968;42.696;23.360;2024-03-02T01:37:30;94630.53;;;10.35;81.33
34742;BME280;20968;42.696;23.360;2024-03-02T01:39:56;94629.75;;;10.34;81.41
34742;BME280;20968;42.696;23.360;2024-03-02T01:42:21;94632.31;;;10.43;81.21
34742;BME280;20968;42.696;23.360;2024-03-02T01:44:47;94630.09;;;10.47;80.99
34742;BME280;20968;42.696;23.360;2024-03-02T01:47:13;94616.88;;;10.51;80.92
34742;BME280;20968;42.696;23.360;2024-03-02T01:49:38;94623.94;;;10.63;80.33
34742;BME280;20968;42.696;23.360;2024-03-02T01:52:06;94613.72;;;10.69;80.77
34742;BME280;20968;42.696;23.360;2024-03-02T01:54:31;94619.22;;;10.69;80.44
34742;BME280;20968;42.696;23.360;2024-03-02T01:56:57;94614.84;;;10.52;80.46
34742;BME280;20968;42.696;23.360;2024-03-02T01:59:22;94625.25;;;10.31;81.73
34742;BME280;20968;42.696;23.360;2024-03-02T02:01:47;94620.03;;;10.39;81.72
34742;BME280;20968;42.696;23.360;2024-03-02T02:04:13;94624.06;;;10.43;81.88
34742;BME280;20968;42.696;23.360;2024-03-02T02:06:38;94618.81;;;10.45;81.12
34742;BME280;20968;42.696;23.360;2024-03-02T02:09:04;94622.09;;;10.49;80.87
34742;BME280;20968;42.696;23.360;2024-03-02T02:11:29;94622.63;;;10.53;81.02
34742;BME280;20968;42.696;23.360;2024-03-02T02:13:55;94612.09;;;10.46;81.36
34742;BME280;20968;42.696;23.360;2024-03-02T02:16:23;94615.25;;;10.34;81.74
34742;BME280;20968;42.696;23.360;2024-03-02T02:18:48;94612.78;;;10.41;81.36
34742;BME280;20968;42.696;23.360;2024-03-02T02:21:13;94612.81;;;10.47;81.45
34742;BME280;20968;42.696;23.360;2024-03-02T02:23:39;94617.13;;;10.53;81.51
34742;BME280;20968;42.696;23.360;2024-03-02T02:26:04;94616.88;;;10.51;81.04
34742;BME280;20968;42.696;23.360;2024-03-02T02:28:30;94613.13;;;10.54;80.82
34742;BME280;20968;42.696;23.360;2024-03-02T02:30:55;94617.59;;;10.46;81.29
34742;BME280;20968;42.696;23.360;2024-03-02T02:33:25;94618.34;;;10.47;81.47
34742;BME280;20968;42.696;23.360;2024-03-02T02:35:50;94612.09;;;10.46;80.82
34742;BME280;20968;42.696;23.360;2024-03-02T02:38:16;94615.28;;;10.39;81.50
34742;BME280;20968;42.696;23.360;2024-03-02T02:40:41;94618.50;;;10.32;81.50
34742;BME280;20968;42.696;23.360;2024-03-02T02:43:06;94617.16;;;10.22;81.79
34742;BME280;20968;42.696;23.360;2024-03-02T02:45:32;94608.59;;;10.15;81.93
34742;BME280;20968;42.696;23.360;2024-03-02T02:47:57;94608.91;;;10.22;82.29
34742;BME280;20968;42.696;23.360;2024-03-02T02:50:23;94608.91;;;10.22;82.08
34742;BME280;20968;42.696;23.360;2024-03-02T02:52:48;94610.94;;;10.27;82.48
34742;BME280;20968;42.696;23.360;2024-03-02T02:55:13;94611.13;;;10.18;82.92
34742;BME280;20968;42.696;23.360;2024-03-02T02:57:41;94618.44;;;10.27;82.60
34742;BME280;20968;42.696;23.360;2024-03-02T03:00:12;94622.72;;;10.28;82.23
34742;BME280;20968;42.696;23.360;2024-03-02T03:02:43;94612.47;;;10.28;82.38
34742;BME280;20968;42.696;23.360;2024-03-02T03:05:10;94616.63;;;10.18;82.22
34742;BME280;20968;42.696;23.360;2024-03-02T03:07:36;94616.38;;;10.16;82.51
34742;BME280;20968;42.696;23.360;2024-03-02T03:10:02;94619.91;;;10.22;82.45
34742;BME280;20968;42.696;23.360;2024-03-02T03:12:29;94620.19;;;10.24;82.37
34742;BME280;20968;42.696;23.360;2024-03-02T03:14:55;94613.69;;;10.27;82.37
34742;BME280;20968;42.696;23.360;2024-03-02T03:17:21;94619.19;;;10.27;82.22
34742;BME280;20968;42.696;23.360;2024-03-02T03:19:47;94610.94;;;10.27;82.22
34742;BME280;20968;42.696;23.360;2024-03-02T03:22:12;94617.00;;;10.31;82.12
34742;BME280;20968;42.696;23.360;2024-03-02T03:24:38;94611.44;;;10.26;82.24
34742;BME280;20968;42.696;23.360;2024-03-02T03:27:04;94612.91;;;10.21;82.42
34742;BME280;20968;42.696;23.360;2024-03-02T03:29:29;94620.97;;;10.30;82.25
34742;BME280;20968;42.696;23.360;2024-03-02T03:31:54;94620.31;;;10.41;82.05
34742;BME280;20968;42.696;23.360;2024-03-02T03:34:20;94620.31;;;10.41;82.26
34742;BME280;20968;42.696;23.360;2024-03-02T03:36:45;94615.03;;;10.37;82.02
34742;BME280;20968;42.696;23.360;2024-03-02T03:39:10;94615.81;;;10.43;82.11
34742;BME280;20968;42.696;23.360;2024-03-02T03:41:36;94622.56;;;10.42;82.40
34742;BME280;20968;42.696;23.360;2024-03-02T03:44:01;94616.59;;;10.49;82.13
34742;BME280;20968;42.696;23.360;2024-03-02T03:46:27;94614.84;;;10.46;81.69
34742;BME280;20968;42.696;23.360;2024-03-02T03:48:52;94614.28;;;10.42;82.15
34742;BME280;20968;42.696;23.360;2024-03-02T03:51:17;94617.09;;;10.48;82.08
34742;BME280;20968;42.696;23.360;2024-03-02T03:53:43;94617.84;;;10.48;81.68
34742;BME280;20968;42.696;23.360;2024-03-02T03:56:08;94614.28;;;10.42;82.11
34742;BME280;20968;42.696;23.360;2024-03-02T03:58:33;94610.25;;;10.38;82.71
34742;BME280;20968;42.696;23.360;2024-03-02T04:00:59;94613.00;;;10.38;82.54
34742;BME280;20968;42.696;23.360;2024-03-02T04:03:24;94616.00;;;10.34;83.07
34742;BME280;20968;42.696;23.360;2024-03-02T04:05:50;94616.75;;;10.35;82.90
34742;BME280;20968;42.696;23.360;2024-03-02T04:08:15;94610.44;;;10.23;83.13
34742;BME280;20968;42.696;23.360;2024-03-02T04:10:41;94607.22;;;10.30;82.82
34742;BME280;20968;42.696;23.360;2024-03-02T04:13:07;94605.63;;;10.18;83.20
34742;BME280;20968;42.696;23.360;2024-03-02T04:15:33;94606.88;;;10.17;83.44
34742;BME280;20968;42.696;23.360;2024-03-02T04:17:58;94611.28;;;10.04;83.70
34742;BME280;20968;42.696;23.360;2024-03-02T04:20:23;94604.97;;;9.98;83.79
34742;BME280;20968;42.696;23.360;2024-03-02T04:22:49;94604.75;;;10.02;84.72
34742;BME280;20968;42.696;23.360;2024-03-02T04:25:14;94604.75;;;10.02;83.97
34742;BME280;20968;42.696;23.360;2024-03-02T04:27:39;94617.06;;;10.06;83.90
34742;BME280;20968;42.696;23.360;2024-03-02T04:30:05;94615.75;;;10.02;84.59
34742;BME280;20968;42.696;23.360;2024-03-02T04:32:31;94611.75;;;10.03;83.99
34742;BME280;20968;42.696;23.360;2024-03-02T04:34:57;94612.16;;;9.96;84.58
34742;BME280;20968;42.696;23.360;2024-03-02T04:37:22;94612.28;;;10.07;83.92
34742;BME280;20968;42.696;23.360;2024-03-02T04:39:47;94614.31;;;10.11;84.28
34742;BME280;20968;42.696;23.360;2024-03-02T04:42:13;94621.59;;;10.14;83.85
34742;BME280;20968;42.696;23.360;2024-03-02T04:44:38;94616.16;;;10.20;83.79
34742;BME280;20968;42.696;23.360;2024-03-02T04:47:04;94625.16;;;10.20;83.33
34742;BME280;20968;42.696;23.360;2024-03-02T04:49:30;94623.16;;;10.21;83.84
34742;BME280;20968;42.696;23.360;2024-03-02T04:51:55;94628.97;;;10.28;83.71
34742;BME280;20968;42.696;23.360;2024-03-02T04:54:22;94629.75;;;10.34;83.48
34742;BME280;20968;42.696;23.360;2024-03-02T04:56:47;94623.78;;;10.41;83.56
34742;BME280;20968;42.696;23.360;2024-03-02T04:59:16;94627.09;;;10.45;83.01
34742;BME280;20968;42.696;23.360;2024-03-02T05:01:42;94634.88;;;10.52;82.64
34742;BME280;20968;42.696;23.360;2024-03-02T05:04:08;94633.66;;;10.53;82.49
34742;BME280;20968;42.696;23.360;2024-03-02T05:06:33;94628.38;;;10.50;82.29
34742;BME280;20968;42.696;23.360;2024-03-02T05:08:59;94629.56;;;10.43;82.76
34742;BME280;20968;42.696;23.360;2024-03-02T05:11:24;94637.25;;;10.34;82.96
34742;BME280;20968;42.696;23.360;2024-03-02T05:14:05;94641.22;;;10.27;82.92
34742;BME280;20968;42.696;23.360;2024-03-02T05:16:34;94639.75;;;10.32;83.15
34742;BME280;20968;42.696;23.360;2024-03-02T05:19:00;94647.28;;;10.37;82.95
34742;BME280;20968;42.696;23.360;2024-03-02T05:21:26;94643.78;;;10.36;83.30
34742;BME280;20968;42.696;23.360;2024-03-02T05:23:51;94652.31;;;10.38;83.53
34742;BME280;20968;42.696;23.360;2024-03-02T05:26:16;94645.56;;;10.39;82.99
34742;BME280;20968;42.696;23.360;2024-03-02T05:28:42;94654.88;;;10.47;83.58
34742;BME280;20968;42.696;23.360;2024-03-02T05:31:10;94651.63;;;10.49;83.50
34742;BME280;20968;42.696;23.360;2024-03-02T05:33:38;94652.09;;;10.42;83.72
34742;BME280;20968;42.696;23.360;2024-03-02T05:36:04;94656.13;;;10.46;83.40
34742;BME280;20968;42.696;23.360;2024-03-02T05:38:29;94661.19;;;10.53;83.58
34742;BME280;20968;42.696;23.360;2024-03-02T05:40:55;94664.19;;;10.55;83.67
34742;BME280;20968;42.696;23.360;2024-03-02T05:43:20;94665.69;;;10.56;83.37
34742;BME280;20968;42.696;23.360;2024-03-02T05:45:45;94673.75;;;10.65;84.65
34742;BME280;20968;42.696;23.360;2024-03-02T05:48:11;94667.50;;;10.65;84.58
34742;BME280;20968;42.696;23.360;2024-03-02T05:50:36;94675.22;;;10.61;84.80
34742;BME280;20968;42.696;23.360;2024-03-02T05:53:02;94665.69;;;10.56;84.35
34742;BME280;20968;42.696;23.360;2024-03-02T05:55:27;94679.50;;;10.62;84.17
34742;BME280;20968;42.696;23.360;2024-03-02T05:57:52;94681.22;;;10.59;84.04
34742;BME280;20968;42.696;23.360;2024-03-02T06:00:37;94678.19;;;10.57;83.91
34742;BME280;20968;42.696;23.360;2024-03-02T06:03:04;94683.94;;;10.54;84.32
34742;BME280;20968;42.696;23.360;2024-03-02T06:05:29;94684.34;;;10.41;85.05
34742;BME280;20968;42.696;23.360;2024-03-02T06:07:54;94678.03;;;10.35;84.94
34742;BME280;20968;42.696;23.360;2024-03-02T06:10:20;94681.34;;;10.39;85.12
34742;BME280;20968;42.696;23.360;2024-03-02T06:12:46;94674.56;;;10.40;85.20
34742;BME280;20968;42.696;23.360;2024-03-02T06:15:11;94679.38;;;10.45;84.87
34742;BME280;20968;42.696;23.360;2024-03-02T06:17:36;94679.56;;;10.36;84.82
34742;BME280;20968;42.696;23.360;2024-03-02T06:20:02;94685.06;;;10.36;85.29
34742;BME280;20968;42.696;23.360;2024-03-02T06:22:28;94680.63;;;10.44;84.63
34742;BME280;20968;42.696;23.360;2024-03-02T06:24:53;94678.38;;;10.43;85.73
34742;BME280;20968;42.696;23.360;2024-03-02T06:27:18;94682.75;;;10.29;85.74
34742;BME280;20968;42.696;23.360;2024-03-02T06:29:44;94683.25;;;10.28;85.93
34742;BME280;20968;42.696;23.360;2024-03-02T06:32:09;94685.50;;;10.29;85.73
34742;BME280;20968;42.696;23.360;2024-03-02T06:34:35;94684.22;;;10.56;91.16
34742;BME280;20968;42.696;23.360;2024-03-02T06:37:00;94683.25;;;11.53;93.72
34742;BME280;20968;42.696;23.360;2024-03-02T06:39:25;94690.84;;;11.74;88.31
34742;BME280;20968;42.696;23.360;2024-03-02T06:41:51;94695.97;;;12.41;87.93
34742;BME280;20968;42.696;23.360;2024-03-02T06:44:17;94691.72;;;12.68;84.64
34742;BME280;20968;42.696;23.360;2024-03-02T06:46:42;94687.66;;;13.02;80.93
34742;BME280;20968;42.696;23.360;2024-03-02T06:49:08;94687.44;;;12.83;78.60
34742;BME280;20968;42.696;23.360;2024-03-02T06:51:35;94694.19;;;12.82;79.57
34742;BME280;20968;42.696;23.360;2024-03-02T06:54:00;94696.22;;;12.93;79.23
34742;BME280;20968;42.696;23.360;2024-03-02T06:56:26;94698.47;;;12.72;78.70
34742;BME280;20968;42.696;23.360;2024-03-02T06:58:51;94699.00;;;12.49;77.87
34742;BME280;20968;42.696;23.360;2024-03-02T07:01:17;94701.50;;;12.14;78.09
34742;BME280;20968;42.696;23.360;2024-03-02T07:03:42;94709.94;;;11.83;78.20
34742;BME280;20968;42.696;23.360;2024-03-02T07:06:09;94703.88;;;11.68;77.89
34742;BME280;20968;42.696;23.360;2024-03-02T07:08:34;94706.41;;;11.25;79.73
34742;BME280;20968;42.696;23.360;2024-03-02T07:11:00;94706.88;;;11.12;80.35
34742;BME280;20968;42.696;23.360;2024-03-02T07:13:25;94705.25;;;10.95;81.30
34742;BME280;20968;42.696;23.360;2024-03-02T07:15:51;94714.75;;;10.94;81.35
34742;BME280;20968;42.696;23.360;2024-03-02T07:18:29;94710.38;;;10.77;82.54
34742;BME280;20968;42.696;23.360;2024-03-02T07:20:56;94708.63;;;10.43;83.48
34742;BME280;20968;42.696;23.360;2024-03-02T07:23:23;94715.06;;;10.34;84.75
34742;BME280;20968;42.696;23.360;2024-03-02T07:25:52;94717.19;;;10.19;85.89
34742;BME280;20968;42.696;23.360;2024-03-02T07:28:20;94717.97;;;10.25;85.92
34742;BME280;20968;42.696;23.360;2024-03-02T07:30:45;94710.88;;;10.13;86.11
34742;BME280;20968;42.696;23.360;2024-03-02T07:33:30;94713.91;;;10.15;86.14
34742;BME280;20968;42.696;23.360;2024-03-02T07:35:56;94719.41;;;10.15;87.13
34742;BME280;20968;42.696;23.360;2024-03-02T07:38:22;94715.13;;;10.14;86.49
34742;BME280;20968;42.696;23.360;2024-03-02T07:40:48;94719.84;;;10.08;87.06
34742;BME280;20968;42.696;23.360;2024-03-02T07:43:18;94719.41;;;9.96;87.78
34742;BME280;20968;42.696;23.360;2024-03-02T07:45:44;94724.50;;;10.03;87.87
34742;BME280;20968;42.696;23.360;2024-03-02T07:48:10;94729.31;;;10.07;88.08
34742;BME280;20968;42.696;23.360;2024-03-02T07:50:35;94722.44;;;10.17;88.13
34742;BME280;20968;42.696;23.360;2024-03-02T07:53:02;94723.69;;;10.22;87.61
34742;BME280;20968;42.696;23.360;2024-03-02T07:55:29;94731.47;;;10.23;87.89
34742;BME280;20968;42.696;23.360;2024-03-02T07:57:54;94731.03;;;10.30;87.74
34742;BME280;20968;42.696;23.360;2024-03-02T08:00:20;94726.56;;;10.33;87.37
34742;BME280;20968;42.696;23.360;2024-03-02T08:02:45;94729.84;;;10.37;87.38
34742;BME280;20968;42.696;23.360;2024-03-02T08:05:11;94729.88;;;10.42;87.69
34742;BME280;20968;42.696;23.360;2024-03-02T08:07:36;94734.44;;;10.45;86.90
34742;BME280;20968;42.696;23.360;2024-03-02T08:10:02;94736.69;;;10.47;87.37
34742;BME280;20968;42.696;23.360;2024-03-02T08:12:28;94739.38;;;10.41;87.25
34742;BME280;20968;42.696;23.360;2024-03-02T08:14:53;94735.38;;;10.42;87.18
34742;BME280;20968;42.696;23.360;2024-03-02T08:17:18;94737.63;;;10.38;87.49
34742;BME280;20968;42.696;23.360;2024-03-02T08:19:44;94740.38;;;10.38;87.71
34742;BME280;20968;42.696;23.360;2024-03-02T08:22:10;94738.44;;;10.19;87.71
34742;BME280;20968;42.696;23.360;2024-03-02T08:24:35;94737.22;;;10.20;88.61
34742;BME280;20968;42.696;23.360;2024-03-02T08:27:01;94737.09;;;10.09;88.65
34742;BME280;20968;42.696;23.360;2024-03-02T08:29:27;94740.19;;;9.97;89.21
34742;BME280;20968;42.696;23.360;2024-03-02T08:31:53;94736.78;;;10.02;89.44
34742;BME280;20968;42.696;23.360;2024-03-02T08:34:18;94734.03;;;10.02;89.50
34742;BME280;20968;42.696;23.360;2024-03-02T08:36:43;94733.47;;;9.98;89.03
34742;BME280;20968;42.696;23.360;2024-03-02T08:39:09;94734.41;;;10.14;89.38
34742;BME280;20968;42.696;23.360;2024-03-02T08:41:49;94733.75;;;10.25;89.09
34742;BME280;20968;42.696;23.360;2024-03-02T08:44:15;94737.16;;;10.14;89.67
34742;BME280;20968;42.696;23.360;2024-03-02T08:46:41;94729.13;;;10.11;89.87
34742;BME280;20968;42.696;23.360;2024-03-02T08:49:07;94733.91;;;10.16;90.51
34742;BME280;20968;42.696;23.360;2024-03-02T08:51:32;94733.00;;;10.24;90.14
34742;BME280;20968;42.696;23.360;2024-03-02T08:53:58;94732.56;;;10.31;90.63
34742;BME280;20968;42.696;23.360;2024-03-02T08:56:24;94736.38;;;10.39;89.42
34742;BME280;20968;42.696;23.360;2024-03-02T08:58:51;94735.66;;;10.44;89.92
34742;BME280;20968;42.696;23.360;2024-03-02T09:01:17;94732.59;;;10.37;89.59
34742;BME280;20968;42.696;23.360;2024-03-02T09:03:42;94731.03;;;10.30;89.49
34742;BME280;20968;42.696;23.360;2024-03-02T09:06:11;94741.06;;;10.33;89.68
34742;BME280;20968;42.696;23.360;2024-03-02T09:08:37;94739.94;;;10.45;89.80
34742;BME280;20968;42.696;23.360;2024-03-02T09:11:04;94738.38;;;10.70;89.47
34742;BME280;20968;42.696;23.360;2024-03-02T09:13:30;94734.72;;;10.83;89.33
34742;BME280;20968;42.696;23.360;2024-03-02T09:15:56;94743.16;;;10.75;88.00
34742;BME280;20968;42.696;23.360;2024-03-02T09:18:21;94740.75;;;10.87;88.50
34742;BME280;20968;42.696;23.360;2024-03-02T09:20:47;94749.09;;;10.98;88.67
34742;BME280;20968;42.696;23.360;2024-03-02T09:23:12;94744.06;;;10.97;87.53
34742;BME280;20968;42.696;23.360;2024-03-02T09:25:38;94753.81;;;10.92;87.85
34742;BME280;20968;42.696;23.360;2024-03-02T09:28:03;94750.13;;;11.01;87.24
34742;BME280;20968;42.696;23.360;2024-03-02T09:30:29;94755.50;;;10.84;86.19
34742;BME280;20968;42.696;23.360;2024-03-02T09:32:54;94754.38;;;10.71;86.72
34742;BME280;20968;42.696;23.360;2024-03-02T09:35:19;94756.41;;;10.71;86.93
34742;BME280;20968;42.696;23.360;2024-03-02T09:37:45;94753.88;;;10.67;87.57
34742;BME280;20968;42.696;23.360;2024-03-02T09:40:11;94753.88;;;10.67;87.04
34742;BME280;20968;42.696;23.360;2024-03-02T09:42:37;94757.81;;;10.61;88.09
34742;BME280;20968;42.696;23.360;2024-03-02T09:45:02;94760.22;;;10.79;88.04
34742;BME280;20968;42.696;23.360;2024-03-02T09:47:28;94759.69;;;10.75;88.39
34742;BME280;20968;42.696;23.360;2024-03-02T09:49:54;94748.31;;;10.92;87.80
34742;BME280;20968;42.696;23.360;2024-03-02T09:52:21;94751.31;;;10.94;87.51
34742;BME280;20968;42.696;23.360;2024-03-02T09:54:47;94755.31;;;10.93;87.04
34742;BME280;20968;42.696;23.360;2024-03-02T09:57:13;94758.41;;;10.70;86.68
34742;BME280;20968;42.696;23.360;2024-03-02T09:59:38;94752.28;;;10.91;86.71
34742;BME280;20968;42.696;23.360;2024-03-02T10:02:04;94759.81;;;10.91;86.74
34742;BME280;20968;42.696;23.360;2024-03-02T10:04:33;94757.88;;;11.02;86.85
34742;BME280;20968;42.696;23.360;2024-03-02T10:07:19;94753.22;;;11.14;86.11
34742;BME280;20968;42.696;23.360;2024-03-02T10:09:48;94759.28;;;11.23;86.07
34742;BME280;20968;42.696;23.360;2024-03-02T10:12:15;94762.56;;;11.33;86.00
34742;BME280;20968;42.696;23.360;2024-03-02T10:14:42;94769.91;;;11.47;85.90
34742;BME280;20968;42.696;23.360;2024-03-02T10:17:09;94755.88;;;11.45;85.79
34742;BME280;20968;42.696;23.360;2024-03-02T10:19:35;94754.13;;;11.47;85.55
34742;BME280;20968;42.696;23.360;2024-03-02T10:22:06;94759.16;;;11.49;84.89
34742;BME280;20968;42.696;23.360;2024-03-02T10:24:39;94759.47;;;11.56;85.05
34742;BME280;20968;42.696;23.360;2024-03-02T10:27:16;94756.00;;;11.61;85.30
34742;BME280;20968;42.696;23.360;2024-03-02T10:29:42;94754.78;;;11.67;84.07
34742;BME280;20968;42.696;23.360;2024-03-02T10:32:09;94754.72;;;11.57;84.35
34742;BME280;20968;42.696;23.360;2024-03-02T10:34:37;94752.72;;;11.57;84.69
34742;BME280;20968;42.696;23.360;2024-03-02T10:37:03;94752.75;;;11.68;84.73
34742;BME280;20968;42.696;23.360;2024-03-02T10:39:28;94753.78;;;11.76;84.24
34742;BME280;20968;42.696;23.360;2024-03-02T10:41:56;94753.78;;;11.76;84.06
34742;BME280;20968;42.696;23.360;2024-03-02T10:44:22;94748.75;;;11.69;83.17
34742;BME280;20968;42.696;23.360;2024-03-02T10:46:49;94755.31;;;11.77;84.29
34742;BME280;20968;42.696;23.360;2024-03-02T10:49:16;94744.50;;;11.73;84.09
34742;BME280;20968;42.696;23.360;2024-03-02T10:51:42;94748.03;;;11.79;83.87
34742;BME280;20968;42.696;23.360;2024-03-02T10:54:07;94742.75;;;11.76;84.55
34742;BME280;20968;42.696;23.360;2024-03-02T10:56:38;94739.25;;;11.81;84.13
34742;BME280;20968;42.696;23.360;2024-03-02T11:01:55;94742.66;;;11.54;84.29
34742;BME280;20968;42.696;23.360;2024-03-02T11:04:21;94740.06;;;11.34;83.85
34742;BME280;20968;42.696;23.360;2024-03-02T11:06:50;94738.06;;;11.40;83.92
34742;BME280;20968;42.696;23.360;2024-03-02T11:09:19;94733.91;;;11.56;84.25
34742;BME280;20968;42.696;23.360;2024-03-02T11:11:49;94740.22;;;11.62;83.88
34742;BME280;20968;42.696;23.360;2024-03-02T11:14:21;94740.19;;;11.56;84.01
34742;BME280;20968;42.696;23.360;2024-03-02T11:16:49;94729.53;;;11.38;84.81
34742;BME280;20968;42.696;23.360;2024-03-02T11:19:16;94741.06;;;11.37;84.81
34742;BME280;20968;42.696;23.360;2024-03-02T11:21:42;94730.63;;;11.52;84.34
34742;BME280;20968;42.696;23.360;2024-03-02T11:26:49;94726.03;;;11.43;85.34
34742;BME280;20968;42.696;23.360;2024-03-02T11:32:14;94731.41;;;11.58;83.43
34742;BME280;20968;42.696;23.360;2024-03-02T11:34:42;94729.19;;;11.62;84.16
34742;BME280;20968;42.696;23.360;2024-03-02T11:37:11;94732.56;;;11.40;84.62
34742;BME280;20968;42.696;23.360;2024-03-02T11:39:38;94728.28;;;11.39;84.62
34742;BME280;20968;42.696;23.360;2024-03-02T11:42:07;94725.81;;;11.47;85.63
34742;BME280;20968;42.696;23.360;2024-03-02T11:44:40;94730.31;;;11.39;85.71
34742;BME280;20968;42.696;23.360;2024-03-02T11:47:07;94729.09;;;11.51;85.46
34742;BME280;20968;42.696;23.360;2024-03-02T11:49:39;94725.06;;;11.46;84.70
34742;BME280;20968;42.696;23.360;2024-03-02T11:52:07;94730.16;;;11.59;85.41
34742;BME280;20968;42.696;23.360;2024-03-02T11:54:33;94730.66;;;11.63;84.53
34742;BME280;20968;42.696;23.360;2024-03-02T11:57:03;94732.91;;;11.59;84.81
34742;BME280;20968;42.696;23.360;2024-03-02T11:59:29;94730.44;;;11.61;84.14
34742;BME280;20968;42.696;23.360;2024-03-02T12:01:56;94729.94;;;11.67;84.26
34742;BME280;20968;42.696;23.360;2024-03-02T12:04:22;94731.69;;;11.70;84.62
34742;BME280;20968;42.696;23.360;2024-03-02T12:06:54;94726.19;;;11.65;85.05
34742;BME280;20968;42.696;23.360;2024-03-02T12:09:21;94723.69;;;11.72;84.45
34742;BME280;20968;42.696;23.360;2024-03-02T12:11:46;94718.19;;;11.72;83.94
34742;BME280;20968;42.696;23.360;2024-03-02T12:14:12;94726.19;;;11.70;83.37
34742;BME280;20968;42.696;23.360;2024-03-02T12:16:44;94722.72;;;11.75;82.46
34742;BME280;20968;42.696;23.360;2024-03-02T12:19:09;94716.94;;;11.79;83.27
34742;BME280;20968;42.696;23.360;2024-03-02T12:21:35;94723.19;;;11.74;84.00
34742;BME280;20968;42.696;23.360;2024-03-02T12:24:01;94725.94;;;11.68;83.53
34742;BME280;20968;42.696;23.360;2024-03-02T12:26:27;94728.69;;;11.74;82.75
34742;BME280;20968;42.696;23.360;2024-03-02T12:28:53;94730.22;;;11.75;82.41
34742;BME280;20968;42.696;23.360;2024-03-02T12:31:21;94722.44;;;11.73;82.80
34742;BME280;20968;42.696;23.360;2024-03-02T12:33:46;94729.44;;;11.69;82.22
34742;BME280;20968;42.696;23.360;2024-03-02T12:36:13;94725.66;;;11.61;82.03
34742;BME280;20968;42.696;23.360;2024-03-02T12:38:43;94723.69;;;11.72;82.20
34742;BME280;20968;42.696;23.360;2024-03-02T12:41:09;94724.91;;;11.61;82.42
34742;BME280;20968;42.696;23.360;2024-03-02T12:43:34;94716.66;;;11.71;82.11
34742;BME280;20968;42.696;23.360;2024-03-02T12:46:00;94718.94;;;11.73;81.00
34742;BME280;20968;42.696;23.360;2024-03-02T12:48:25;94726.25;;;11.87;80.86
34742;BME280;20968;42.696;23.360;2024-03-02T12:50:51;94726.25;;;11.92;82.11
34742;BME280;20968;42.696;23.360;2024-03-02T12:53:16;94721.00;;;12.00;80.94
34742;BME280;20968;42.696;23.360;2024-03-02T12:55:42;94726.00;;;11.90;80.83
34742;BME280;20968;42.696;23.360;2024-03-02T12:58:17;94724.03;;;12.02;80.70
34742;BME280;20968;42.696;23.360;2024-03-02T13:00:42;94724.28;;;12.09;80.71